createdAt,value
2023-02-18T00:01:37.167Z,10.90
2023-02-18T00:09:45.140Z,11.00
2023-02-18T00:17:50.568Z,10.90
2023-02-18T00:26:06.969Z,10.90
2023-02-18T00:34:15.363Z,11.10
2023-02-18T00:42:23.469Z,11.00
2023-02-18T00:50:29.074Z,10.40
2023-02-18T00:58:39.151Z,10.60
2023-02-18T01:06:45.686Z,10.90
2023-02-18T01:14:56.878Z,10.90
2023-02-18T01:23:02.330Z,10.70
2023-02-18T01:31:13.169Z,10.70
2023-02-18T01:39:18.679Z,11.00
2023-02-18T01:47:26.644Z,11.00
2023-02-18T01:55:32.087Z,10.80
2023-02-18T02:03:40.160Z,10.90
2023-02-18T02:12:06.034Z,11.10
2023-02-18T02:20:43.244Z,10.90
2023-02-18T02:29:20.038Z,10.70
2023-02-18T02:37:36.098Z,10.80
2023-02-18T02:45:52.326Z,10.60
2023-02-18T02:54:14.360Z,10.50
2023-02-18T03:02:30.670Z,10.50
2023-02-18T03:10:51.178Z,10.40
2023-02-18T03:19:04.693Z,11.10
2023-02-18T03:27:19.233Z,11.60
2023-02-18T03:35:26.304Z,11.80
2023-02-18T03:43:35.510Z,11.80
2023-02-18T03:51:40.985Z,11.90
2023-02-18T03:59:49.674Z,12.00
2023-02-18T04:07:55.079Z,12.20
2023-02-18T04:16:03.191Z,12.50
2023-02-18T04:24:09.026Z,12.50
2023-02-18T04:32:16.926Z,12.40
2023-02-18T04:40:22.527Z,12.40
2023-02-18T04:48:30.564Z,12.90
2023-02-18T04:56:36.041Z,13.20
2023-02-18T05:04:44.071Z,13.00
2023-02-18T05:12:49.436Z,13.20
2023-02-18T05:20:57.512Z,13.20
2023-02-18T05:29:02.978Z,13.00
2023-02-18T05:37:11.016Z,13.10
2023-02-18T05:45:16.443Z,12.80
2023-02-18T05:53:24.716Z,13.00
2023-02-18T06:01:30.185Z,13.10
2023-02-18T06:09:38.284Z,13.40
2023-02-18T06:17:43.712Z,13.40
2023-02-18T06:25:52.191Z,13.60
2023-02-18T06:33:57.574Z,13.50
2023-02-18T06:42:05.531Z,13.60
2023-02-18T06:50:11.550Z,13.80
2023-02-18T06:58:19.927Z,13.70
2023-02-18T07:06:28.280Z,13.50
2023-02-18T07:14:36.343Z,13.60
2023-02-18T07:22:41.811Z,13.70
2023-02-18T07:30:50.364Z,13.80
2023-02-18T07:38:55.819Z,13.80
2023-02-18T07:47:03.905Z,13.60
2023-02-18T07:55:10.611Z,13.60
2023-02-18T08:03:19.647Z,13.50
2023-02-18T08:11:25.580Z,14.00
2023-02-18T08:19:33.616Z,14.30
2023-02-18T08:27:39.049Z,14.50
2023-02-18T08:35:48.103Z,14.70
2023-02-18T08:43:53.573Z,14.50
2023-02-18T08:52:02.026Z,14.80
2023-02-18T09:00:08.776Z,15.00
2023-02-18T09:08:17.184Z,14.90
2023-02-18T09:16:24.417Z,15.50
2023-02-18T09:24:33.329Z,15.70
2023-02-18T09:32:38.955Z,15.40
2023-02-18T09:40:50.386Z,15.40
2023-02-18T09:48:56.664Z,15.70
2023-02-18T09:57:06.250Z,15.90
2023-02-18T10:05:17.925Z,16.60
2023-02-18T10:13:27.449Z,18.80
2023-02-18T10:21:36.526Z,20.80
2023-02-18T10:29:45.413Z,21.20
2023-02-18T10:38:02.711Z,21.70
2023-02-18T10:46:20.424Z,21.20
2023-02-18T10:54:28.273Z,21.70
2023-02-18T11:02:36.292Z,21.40
2023-02-18T11:10:45.322Z,20.90
2023-02-18T11:18:54.109Z,20.30
2023-02-18T11:26:59.585Z,20.20
2023-02-18T11:35:09.004Z,20.00
2023-02-18T11:43:46.715Z,20.00
2023-02-18T11:52:06.300Z,19.90
2023-02-18T12:01:03.509Z,18.90
2023-02-18T12:09:22.843Z,18.50
2023-02-18T12:17:46.156Z,18.70
2023-02-18T12:25:57.454Z,18.80
2023-02-18T12:34:23.472Z,18.50
2023-02-18T12:42:49.777Z,18.30
2023-02-18T12:51:36.549Z,17.80
2023-02-18T13:00:11.254Z,18.00
2023-02-18T13:08:29.192Z,18.30
2023-02-18T13:16:38.042Z,18.30
2023-02-18T13:24:47.788Z,18.00
2023-02-18T13:33:04.551Z,17.90
2023-02-18T13:41:10.514Z,17.80
2023-02-18T13:49:24.184Z,17.10
2023-02-18T13:57:30.156Z,17.30
2023-02-18T14:05:44.904Z,17.10
2023-02-18T14:13:55.584Z,16.80
2023-02-18T14:22:32.469Z,16.70
2023-02-18T14:30:43.951Z,16.60
2023-02-18T14:39:00.258Z,16.60
2023-02-18T14:47:17.645Z,16.60
2023-02-18T14:55:29.835Z,16.10
2023-02-18T15:03:35.331Z,16.20
2023-02-18T15:11:46.479Z,16.00
2023-02-18T15:19:54.345Z,15.80
2023-02-18T15:28:02.313Z,15.60
2023-02-18T15:36:10.013Z,15.60
2023-02-18T15:44:32.360Z,15.20
2023-02-18T15:52:41.900Z,15.50
2023-02-18T16:00:56.284Z,15.10
2023-02-18T16:09:04.712Z,15.00
2023-02-18T16:17:18.592Z,15.00
2023-02-18T16:25:28.094Z,15.10
2023-02-18T16:33:36.291Z,15.30
2023-02-18T16:41:41.793Z,15.40
2023-02-18T16:49:52.795Z,15.60
2023-02-18T16:57:58.757Z,15.80
2023-02-18T17:06:07.393Z,15.80
2023-02-18T17:14:18.106Z,15.80
2023-02-18T17:22:26.414Z,15.90
2023-02-18T17:30:33.500Z,15.90
2023-02-18T17:38:41.826Z,16.00
2023-02-18T17:46:49.979Z,16.20
2023-02-18T17:54:58.403Z,16.20
2023-02-18T18:03:04.528Z,16.30
2023-02-18T18:11:16.483Z,16.30
2023-02-18T18:19:21.980Z,16.10
2023-02-18T18:27:30.064Z,16.20
2023-02-18T18:35:38.788Z,16.00
2023-02-18T18:43:49.521Z,15.80
2023-02-18T18:51:56.879Z,15.90
2023-02-18T19:00:05.316Z,15.70
2023-02-18T19:08:12.475Z,15.40
2023-02-18T19:16:23.115Z,15.20
2023-02-18T19:24:28.511Z,15.20
2023-02-18T19:32:36.968Z,15.20
2023-02-18T19:40:42.840Z,15.20
2023-02-18T19:48:54.285Z,15.20
2023-02-18T19:56:59.654Z,15.10
2023-02-18T20:05:11.744Z,15.00
2023-02-18T20:13:17.388Z,15.10
2023-02-18T20:21:25.488Z,15.10
2023-02-18T20:29:33.629Z,14.80
2023-02-18T20:37:42.419Z,14.70
2023-02-18T20:45:47.805Z,14.60
2023-02-18T20:53:56.443Z,14.40
2023-02-18T21:02:02.422Z,14.60
2023-02-18T21:10:11.300Z,14.10
2023-02-18T21:18:17.292Z,14.50
2023-02-18T21:26:27.468Z,14.40
2023-02-18T21:34:33.409Z,14.40
2023-02-18T21:51:03.448Z,14.40
2023-02-18T21:59:11.536Z,14.30
2023-02-18T22:07:17.951Z,14.00
2023-02-18T22:15:26.312Z,14.20
2023-02-18T22:23:34.414Z,13.50
2023-02-18T22:31:42.524Z,13.60
2023-02-18T22:39:48.300Z,13.70
2023-02-18T22:47:56.373Z,13.50
2023-02-18T22:56:03.624Z,13.40
2023-02-18T23:04:14.137Z,13.30
2023-02-18T23:12:19.514Z,13.70
2023-02-18T23:20:39.653Z,14.00
2023-02-18T23:28:52.529Z,14.00
2023-02-18T23:37:01.180Z,13.80
2023-02-18T23:45:06.862Z,13.90
2023-02-18T23:53:14.885Z,14.10
